^^
Saratoga-Weather Station Historical Data
Daily Summary for March 26, 2020 Units:  English    Metric   Both
Daily Weekly Monthly Yearly Custom
  High: Low: Average:
Temperature: 54 °F 45.9 °F 49.8 °F
Dew Point: 49.5 °F 43 °F 46 °F
Humidity: 96% 70% 87%
Wind Speed: 15mph 0mph 1.4mph
Wind Gust: 16mph - -
Wind- - SW
Pressure: 29.7 in 29.6 in -
Precipitation: 0.06 in    
Historical Graphs
 
 
Tabular Data for March 26, 2020
Time Temperature Dew Point Pressure Wind Wind Speed Wind Gust Humidity Rainfall Rate (Hourly) solar
00:01 50 °F 48.9 °F 29.6 in NE 0.9 mph 1 mph 96% 0 in 0 W/m2
00:06 50.2 °F 49.1 °F 29.6 in Calm   2 mph 96% 0 in 0 W/m2
00:11 50.2 °F 49.1 °F 29.6 in NE 2.9 mph 3 mph 96% 0 in 0 W/m2
00:16 50.4 °F 49.3 °F 29.6 in ENE 0.9 mph 1 mph 96% 0 in 0 W/m2
00:21 50.4 °F 49.3 °F 29.6 in Calm   3 mph 96% 0 in 0 W/m2
00:26 50.4 °F 49.3 °F 29.6 in East 2 mph 2 mph 96% 0 in 0 W/m2
00:31 50.4 °F 49.3 °F 29.6 in Calm   2 mph 96% 0 in 0 W/m2
00:36 50.4 °F 49.3 °F 29.6 in ENE 0.9 mph 2 mph 96% 0 in 0 W/m2
00:41 50.4 °F 49.3 °F 29.6 in Calm   1 mph 96% 0 in 0 W/m2
00:46 50.4 °F 49.3 °F 29.6 in ENE 0.9 mph 2 mph 96% 0 in 0 W/m2
00:51 50.4 °F 49.3 °F 29.6 in Calm   2 mph 96% 0 in 0 W/m2
00:56 50.4 °F 49.3 °F 29.6 in Calm   1 mph 96% 0 in 0 W/m2
01:01 50.4 °F 49.3 °F 29.6 in Calm     96% 0 in 0 W/m2
01:06 50.4 °F 49.3 °F 29.6 in East 0.9 mph 3 mph 96% 0 in 0 W/m2
01:11 50.4 °F 49.3 °F 29.6 in Calm     96% 0 in 0 W/m2
01:16 50.4 °F 49.3 °F 29.6 in East 0.9 mph 1 mph 96% 0.01 in 0 W/m2
01:21 50.4 °F 49.3 °F 29.6 in East 0.9 mph 2 mph 96% 0.01 in 0 W/m2
01:26 50.4 °F 49.3 °F 29.6 in NE 2 mph 3 mph 96% 0.01 in 0 W/m2
01:31 50.4 °F 49.3 °F 29.6 in Calm     96% 0.01 in 0 W/m2
01:36 50.4 °F 49.3 °F 29.6 in Calm   2 mph 96% 0.01 in 0 W/m2
01:41 50.4 °F 49.3 °F 29.6 in East 2 mph 2 mph 96% 0.01 in 0 W/m2
01:46 50.4 °F 49.3 °F 29.6 in Calm   2 mph 96% 0.02 in 0 W/m2
01:51 50.5 °F 49.5 °F 29.6 in NE 2 mph 2 mph 96% 0.03 in 0 W/m2
01:56 50.4 °F 49.3 °F 29.6 in Calm     96% 0.04 in 0 W/m2
02:01 50.4 °F 49.3 °F 29.6 in NE 2 mph 2 mph 96% 0.04 in 0 W/m2
02:06 50.4 °F 49.3 °F 29.6 in WNW 2 mph 9 mph 96% 0.05 in 0 W/m2
02:11 50.4 °F 49.3 °F 29.6 in South 0.9 mph 4 mph 96% 0.04 in 0 W/m2
02:16 50.4 °F 49.3 °F 29.6 in Calm   3 mph 96% 0.04 in 0 W/m2
02:21 50.2 °F 49.1 °F 29.6 in NNW 0.9 mph 3 mph 96% 0.05 in 0 W/m2
02:26 50.2 °F 48.7 °F 29.6 in ENE 0.9 mph 2 mph 95% 0.05 in 0 W/m2
02:31 50 °F 48.6 °F 29.6 in SE 2.9 mph 3 mph 95% 0.05 in 0 W/m2
02:36 49.8 °F 48.4 °F 29.6 in Calm   3 mph 95% 0.06 in 0 W/m2
02:41 49.8 °F 48.4 °F 29.6 in NW 0.9 mph 2 mph 95% 0.06 in 0 W/m2
02:46 49.8 °F 48.2 °F 29.6 in NNW 0.9 mph 2 mph 94% 0.05 in 0 W/m2
02:51 49.8 °F 48.2 °F 29.6 in Calm   2 mph 94% 0.02 in 0 W/m2
02:56 49.6 °F 48 °F 29.6 in West 0.9 mph 2 mph 94% 0.02 in 0 W/m2
03:02 49.8 °F 48.2 °F 29.6 in Calm   2 mph 94% 0.02 in 0 W/m2
03:07 49.8 °F 48.2 °F 29.6 in WNW 2 mph 2 mph 94% 0.02 in 0 W/m2
03:12 49.8 °F 48.2 °F 29.6 in NW 2 mph 4 mph 94% 0.02 in 0 W/m2
03:17 50 °F 48.6 °F 29.6 in Calm   3 mph 95% 0.02 in 0 W/m2
03:22 50 °F 48.6 °F 29.6 in WNW 2 mph 3 mph 95% 0.01 in 0 W/m2
03:27 50 °F 48.6 °F 29.6 in NNW 2 mph 2 mph 95% 0.01 in 0 W/m2
03:32 50.2 °F 48.7 °F 29.6 in Calm   3 mph 95% 0 in 0 W/m2
03:37 50.2 °F 48.6 °F 29.6 in NNW 2 mph 3 mph 94% 0 in 0 W/m2
03:42 50.2 °F 48.6 °F 29.6 in NW 0.9 mph 4 mph 94% 0 in 0 W/m2
03:47 50.2 °F 48.6 °F 29.6 in Calm     94% 0 in 0 W/m2
03:52 50 °F 48.4 °F 29.6 in Calm   4 mph 94% 0 in 0 W/m2
03:57 49.8 °F 48.2 °F 29.6 in North 4.9 mph 5 mph 94% 0 in 0 W/m2
04:02 49.8 °F 48.2 °F 29.6 in Calm     94% 0 in 0 W/m2
04:07 49.8 °F 48.2 °F 29.6 in Calm   1 mph 94% 0 in 0 W/m2
04:12 49.8 °F 48.2 °F 29.6 in NE 2 mph 2 mph 94% 0 in 0 W/m2
04:17 49.6 °F 48 °F 29.6 in Calm   2 mph 94% 0 in 0 W/m2
04:22 49.6 °F 48 °F 29.6 in WNW 4 mph 4 mph 94% 0 in 0 W/m2
04:27 49.6 °F 48 °F 29.6 in Calm   2 mph 94% 0 in 0 W/m2
04:32 49.5 °F 47.8 °F 29.6 in SW 2.9 mph 8 mph 94% 0 in 0 W/m2
04:37 49.5 °F 47.8 °F 29.6 in WNW 2 mph 3 mph 94% 0 in 0 W/m2
04:42 49.5 °F 47.8 °F 29.6 in NW 0.9 mph 6 mph 94% 0 in 0 W/m2
04:47 49.3 °F 47.7 °F 29.6 in Calm   3 mph 94% 0 in 0 W/m2
04:52 49.3 °F 47.7 °F 29.6 in NE 0.9 mph 3 mph 94% 0 in 0 W/m2
04:57 49.3 °F 47.7 °F 29.6 in West 2 mph 2 mph 94% 0 in 0 W/m2
05:02 49.3 °F 47.7 °F 29.6 in NW 2 mph 3 mph 94% 0 in 0 W/m2
05:07 49.3 °F 47.7 °F 29.6 in West 0.9 mph 2 mph 94% 0 in 0 W/m2
05:12 49.3 °F 47.3 °F 29.6 in Calm   1 mph 93% 0 in 0 W/m2
05:17 49.3 °F 47.3 °F 29.6 in Calm   2 mph 93% 0 in 0 W/m2
05:22 49.1 °F 47.1 °F 29.6 in Calm   1 mph 93% 0 in 0 W/m2
05:27 48.9 °F 46.9 °F 29.6 in Calm   2 mph 93% 0 in 0 W/m2
05:32 48.7 °F 46.8 °F 29.6 in ENE 0.9 mph 3 mph 93% 0 in 0 W/m2
05:37 48.6 °F 46.9 °F 29.6 in Calm     94% 0 in 0 W/m2
05:42 48.6 °F 46.9 °F 29.6 in Calm   3 mph 94% 0 in 0 W/m2
05:47 48.4 °F 46.8 °F 29.6 in Calm   1 mph 94% 0 in 0 W/m2
05:53 48.4 °F 46.8 °F 29.6 in WNW 2 mph 2 mph 94% 0 in 0 W/m2
05:58 48.6 °F 46.9 °F 29.6 in NW 0.9 mph 1 mph 94% 0 in 0 W/m2
06:03 48.6 °F 46.9 °F 29.6 in WNW 0.9 mph 5 mph 94% 0 in 0 W/m2
06:08 48.6 °F 46.9 °F 29.6 in West 2 mph 8 mph 94% 0 in 0 W/m2
06:13 48.6 °F 46.9 °F 29.6 in Calm   3 mph 94% 0 in 0 W/m2
06:18 48.7 °F 47.1 °F 29.6 in WNW 2 mph 8 mph 94% 0 in 0 W/m2
06:23 48.7 °F 46.8 °F 29.6 in Calm   2 mph 93% 0 in 0 W/m2
06:28 48.7 °F 46.8 °F 29.6 in WNW 0.9 mph 5 mph 93% 0 in 0 W/m2
06:33 48.7 °F 46.8 °F 29.6 in Calm   2 mph 93% 0 in 0 W/m2
06:38 48.6 °F 46.6 °F 29.6 in NW 0.9 mph 2 mph 93% 0 in 0 W/m2
06:43 48.6 °F 46.6 °F 29.6 in WNW 2 mph 4 mph 93% 0 in 0 W/m2
06:48 48.6 °F 46.6 °F 29.6 in NE 2.9 mph 3 mph 93% 0 in 0 W/m2
06:53 48.4 °F 46.4 °F 29.6 in NW 0.9 mph 5 mph 93% 0 in 0 W/m2
06:58 48.4 °F 46.8 °F 29.6 in North 0.9 mph 3 mph 94% 0 in 0 W/m2
07:03 48.4 °F 46.4 °F 29.6 in ENE 0.9 mph 2 mph 93% 0 in 0 W/m2
07:08 48.4 °F 46.4 °F 29.6 in Calm   2 mph 93% 0 in 0 W/m2
07:13 48.4 °F 46.8 °F 29.6 in North 2 mph 3 mph 94% 0 in 0 W/m2
07:18 48.4 °F 46.4 °F 29.6 in NE 0.9 mph 3 mph 93% 0 in 0 W/m2
07:23 48.4 °F 46.4 °F 29.6 in NW 2 mph 3 mph 93% 0 in 0 W/m2
07:28 48.2 °F 46.2 °F 29.6 in ENE 2 mph 2 mph 93% 0 in 0 W/m2
07:33 48.2 °F 46.2 °F 29.6 in Calm   3 mph 93% 0 in 5 W/m2
07:38 48 °F 46 °F 29.6 in NE 2.9 mph 3 mph 93% 0 in 7 W/m2
07:43 48.2 °F 46.6 °F 29.6 in East 2.9 mph 3 mph 94% 0 in 9 W/m2
07:48 48.4 °F 46.8 °F 29.6 in Calm   5 mph 94% 0 in 9 W/m2
07:53 48.4 °F 46.8 °F 29.6 in Calm   3 mph 94% 0 in 9 W/m2
07:58 48.4 °F 46.8 °F 29.6 in East 0.9 mph 3 mph 94% 0 in 7 W/m2
08:03 48.4 °F 46.8 °F 29.6 in NW 2.9 mph 3 mph 94% 0 in 12 W/m2
08:08 48.4 °F 46.4 °F 29.6 in WNW 0.9 mph 3 mph 93% 0 in 19 W/m2
08:13 48.4 °F 46.4 °F 29.6 in Calm   4 mph 93% 0 in 25 W/m2
08:18 48.4 °F 46.4 °F 29.6 in East 2.9 mph 3 mph 93% 0 in 35 W/m2
08:23 48.4 °F 46.4 °F 29.6 in NNW 0.9 mph 4 mph 93% 0 in 28 W/m2
08:28 48.6 °F 46.6 °F 29.6 in Calm   2 mph 93% 0 in 40 W/m2
08:33 48.4 °F 46.4 °F 29.6 in Calm   4 mph 93% 0 in 35 W/m2
08:38 48.6 °F 46.6 °F 29.6 in NE 2.9 mph 4 mph 93% 0 in 37 W/m2
08:43 48.6 °F 46.6 °F 29.7 in Calm   3 mph 93% 0 in 30 W/m2
08:48 48.6 °F 46.6 °F 29.7 in NE 0.9 mph 4 mph 93% 0 in 47 W/m2
08:53 48.6 °F 46.6 °F 29.7 in North 0.9 mph 2 mph 93% 0 in 49 W/m2
08:58 48.7 °F 46.8 °F 29.7 in NW 0.9 mph 3 mph 93% 0 in 54 W/m2
09:03 48.7 °F 46.6 °F 29.7 in North 0.9 mph 2 mph 92% 0 in 70 W/m2
09:08 48.9 °F 46.8 °F 29.7 in North 0.9 mph 4 mph 92% 0 in 62 W/m2
09:13 48.9 °F 46.8 °F 29.7 in ENE 2.9 mph 5 mph 92% 0 in 67 W/m2
09:18 48.9 °F 46.8 °F 29.7 in NW 2 mph 4 mph 92% 0 in 77 W/m2
09:23 48.9 °F 46.4 °F 29.7 in NNE 2.9 mph 3 mph 91% 0 in 83 W/m2
09:28 49.1 °F 46.6 °F 29.7 in WNW 2.9 mph 4 mph 91% 0 in 97 W/m2
09:33 49.3 °F 46.8 °F 29.7 in NW 2 mph 2 mph 91% 0 in 113 W/m2
09:38 49.3 °F 46.8 °F 29.7 in NNW 2.9 mph 5 mph 91% 0 in 113 W/m2
09:43 49.3 °F 46.8 °F 29.7 in North 0.9 mph 3 mph 91% 0 in 120 W/m2
09:48 49.3 °F 46.4 °F 29.7 in WNW 2.9 mph 4 mph 90% 0 in 123 W/m2
09:53 49.5 °F 46.6 °F 29.7 in NNW 2.9 mph 5 mph 90% 0 in 105 W/m2
09:58 49.5 °F 46.6 °F 29.7 in WNW 0.9 mph 3 mph 90% 0 in 109 W/m2
10:03 49.6 °F 46.8 °F 29.7 in Calm   3 mph 90% 0 in 125 W/m2
10:08 49.6 °F 46.8 °F 29.7 in NW 4.9 mph 9 mph 90% 0 in 121 W/m2
10:13 49.6 °F 46.6 °F 29.7 in WSW 0.9 mph 7 mph 89% 0 in 120 W/m2
10:19 49.6 °F 46.6 °F 29.7 in WNW 2 mph 2 mph 89% 0 in 86 W/m2
10:24 49.6 °F 46.2 °F 29.7 in West 4 mph 7 mph 88% 0 in 98 W/m2
10:29 49.8 °F 46.8 °F 29.7 in West 2 mph 2 mph 89% 0 in 74 W/m2
10:34 49.8 °F 46.4 °F 29.7 in West 4 mph 7 mph 88% 0 in 109 W/m2
10:39 49.8 °F 46.4 °F 29.7 in NW 0.9 mph 3 mph 88% 0 in 125 W/m2
10:44 49.8 °F 46 °F 29.7 in WNW 6.9 mph 9 mph 87% 0 in 113 W/m2
10:49 49.8 °F 46 °F 29.7 in NNE 2 mph 4 mph 87% 0 in 127 W/m2
10:54 49.8 °F 45.5 °F 29.7 in West 2.9 mph 12 mph 85% 0 in 139 W/m2
10:59 49.8 °F 45.5 °F 29.7 in West 8.9 mph 12 mph 85% 0 in 107 W/m2
11:04 49.8 °F 45.5 °F 29.7 in SW 4 mph 8 mph 85% 0 in 97 W/m2
11:09 49.8 °F 45.5 °F 29.7 in Calm   1 mph 85% 0 in 83 W/m2
11:14 49.8 °F 45.9 °F 29.7 in WSW 0.9 mph 3 mph 86% 0 in 127 W/m2
11:19 49.8 °F 45.5 °F 29.7 in ENE 0.9 mph 4 mph 85% 0 in 181 W/m2
11:24 50.2 °F 45.9 °F 29.7 in NNW 2.9 mph 4 mph 85% 0 in 174 W/m2
11:29 50.5 °F 46.2 °F 29.7 in NNW 2 mph 5 mph 85% 0 in 190 W/m2
11:34 50.9 °F 46.2 °F 29.7 in WNW 2 mph 2 mph 84% 0 in 221 W/m2
11:39 51.3 °F 46.2 °F 29.7 in SW 2 mph 3 mph 83% 0 in 206 W/m2
11:44 51.4 °F 46.2 °F 29.7 in SE 0.9 mph 3 mph 82% 0 in 120 W/m2
11:49 51.6 °F 46 °F 29.7 in WNW 2.9 mph 6 mph 81% 0 in 62 W/m2
11:54 51.3 °F 45 °F 29.7 in WNW 4 mph 11 mph 79% 0 in 97 W/m2
11:59 50.9 °F 44.6 °F 29.7 in SW 2.9 mph 10 mph 79% 0 in 88 W/m2
12:04 50.7 °F 44.4 °F 29.7 in West 4 mph 11 mph 79% 0 in 114 W/m2
12:09 50.7 °F 44.4 °F 29.7 in NW 0.9 mph 11 mph 79% 0 in 121 W/m2
12:14 51.1 °F 44.8 °F 29.7 in NW 0.9 mph 4 mph 79% 0 in 120 W/m2
12:19 51.1 °F 44.1 °F 29.7 in NW 2.9 mph 11 mph 77% 0 in 139 W/m2
12:24 51.3 °F 44.2 °F 29.7 in NNW 2.9 mph 7 mph 77% 0 in 125 W/m2
12:29 51.4 °F 43.7 °F 29.7 in NW 2 mph 8 mph 75% 0 in 102 W/m2
12:34 52 °F 44.6 °F 29.7 in West 0.9 mph 9 mph 76% 0 in 128 W/m2
12:39 52 °F 44.2 °F 29.7 in Calm   3 mph 75% 0 in 125 W/m2
12:44 52 °F 44.2 °F 29.7 in WNW 2 mph 9 mph 75% 0 in 118 W/m2
12:49 52 °F 44.2 °F 29.7 in West 2.9 mph 4 mph 75% 0 in 88 W/m2
12:54 51.6 °F 44.2 °F 29.7 in WNW 2.9 mph 5 mph 76% 0 in 109 W/m2
12:59 51.6 °F 43.9 °F 29.7 in WNW 2.9 mph 7 mph 75% 0 in 86 W/m2
13:04 51.4 °F 44.1 °F 29.7 in Calm   3 mph 76% 0 in 81 W/m2
13:09 51.4 °F 44.4 °F 29.7 in West 2 mph 7 mph 77% 0 in 134 W/m2
13:14 51.4 °F 44.8 °F 29.7 in West 2 mph 2 mph 78% 0 in 137 W/m2
13:19 51.6 °F 45 °F 29.7 in WSW 0.9 mph 7 mph 78% 0 in 97 W/m2
13:24 52.2 °F 44.8 °F 29.7 in WNW 4.9 mph 5 mph 76% 0 in 97 W/m2
13:29 52.5 °F 44.8 °F 29.7 in West 0.9 mph 4 mph 75% 0 in 241 W/m2
13:34 52.9 °F 44.8 °F 29.7 in West 2 mph 5 mph 74% 0 in 144 W/m2
13:39 53.2 °F 45.5 °F 29.7 in South 2 mph 6 mph 75% 0 in 295 W/m2
13:44 53.8 °F 45 °F 29.7 in Calm   6 mph 72% 0 in 146 W/m2
13:49 54 °F 45.1 °F 29.7 in WNW 15 mph 16 mph 72% 0 in 185 W/m2
13:54 53.8 °F 44.6 °F 29.7 in NW 0.9 mph 9 mph 71% 0 in 81 W/m2
13:59 53.4 °F 44.2 °F 29.7 in Calm   16 mph 71% 0 in 104 W/m2
14:04 53.2 °F 44.1 °F 29.7 in NW 2.9 mph 9 mph 71% 0 in 130 W/m2
14:09 53.2 °F 44.1 °F 29.7 in WNW 0.9 mph 6 mph 71% 0 in 114 W/m2
14:14 53.2 °F 44.4 °F 29.7 in WNW 0.9 mph 7 mph 72% 0 in 116 W/m2
14:19 53.2 °F 44.8 °F 29.7 in NW 4.9 mph 5 mph 73% 0 in 98 W/m2
14:24 53.4 °F 45.3 °F 29.7 in WSW 0.9 mph 3 mph 74% 0 in 97 W/m2
14:29 53.4 °F 45 °F 29.7 in Calm   5 mph 73% 0 in 132 W/m2
14:34 53.4 °F 45 °F 29.7 in NW 4 mph 7 mph 73% 0 in 121 W/m2
14:39 53.4 °F 45 °F 29.7 in WNW 2.9 mph 3 mph 73% 0 in 134 W/m2
14:44 53.4 °F 45 °F 29.7 in WSW 2 mph 4 mph 73% 0 in 130 W/m2
14:49 53.4 °F 44.6 °F 29.7 in WNW 4 mph 9 mph 72% 0 in 146 W/m2
14:54 53.6 °F 44.4 °F 29.7 in WNW 2 mph 10 mph 71% 0 in 167 W/m2
14:59 53.8 °F 45 °F 29.7 in NW 4 mph 4 mph 72% 0 in 86 W/m2
15:04 53.6 °F 44.8 °F 29.7 in WNW 4 mph 10 mph 72% 0 in 155 W/m2
15:09 53.6 °F 44.8 °F 29.7 in WNW 2 mph 7 mph 72% 0 in 146 W/m2
15:14 53.8 °F 45 °F 29.7 in WSW 4 mph 8 mph 72% 0 in 100 W/m2
15:19 53.6 °F 44.4 °F 29.7 in NW 4 mph 10 mph 71% 0 in 113 W/m2
15:24 53.6 °F 44.1 °F 29.7 in NW 2.9 mph 6 mph 70% 0 in 83 W/m2
15:29 53.4 °F 44.2 °F 29.7 in NNW 4 mph 4 mph 71% 0 in 77 W/m2
15:34 53.4 °F 44.6 °F 29.7 in North 4 mph 4 mph 72% 0 in 91 W/m2
15:39 53.4 °F 44.6 °F 29.7 in WSW 2 mph 7 mph 72% 0 in 95 W/m2
15:44 53.2 °F 44.4 °F 29.7 in WNW 0.9 mph 3 mph 72% 0 in 95 W/m2
15:49 53.2 °F 44.8 °F 29.7 in WNW 0.9 mph 7 mph 73% 0 in 74 W/m2
15:54 53.2 °F 44.8 °F 29.7 in NW 0.9 mph 2 mph 73% 0 in 76 W/m2
15:59 53.2 °F 44.8 °F 29.7 in West 0.9 mph 3 mph 73% 0 in 79 W/m2
16:04 53.2 °F 45.1 °F 29.7 in East 0.9 mph 4 mph 74% 0 in 74 W/m2
16:09 53.2 °F 44.8 °F 29.7 in WSW 0.9 mph 3 mph 73% 0 in 74 W/m2
16:14 53.2 °F 44.8 °F 29.7 in West 2.9 mph 9 mph 73% 0 in 72 W/m2
16:19 53.1 °F 44.2 °F 29.7 in West 0.9 mph 9 mph 72% 0 in 60 W/m2
16:24 53.1 °F 44.2 °F 29.7 in Calm   3 mph 72% 0 in 33 W/m2
16:29 52.9 °F 44.1 °F 29.7 in West 2 mph 9 mph 72% 0 in 23 W/m2
16:34 52.7 °F 44.2 °F 29.7 in NW 2 mph 3 mph 73% 0 in 26 W/m2
16:39 52.5 °F 44.1 °F 29.7 in WSW 2.9 mph 9 mph 73% 0 in 40 W/m2
16:44 52.5 °F 44.8 °F 29.7 in NE 0.9 mph 2 mph 75% 0 in 33 W/m2
16:49 52.3 °F 45 °F 29.7 in Calm   4 mph 76% 0 in 30 W/m2
16:54 52.2 °F 44.4 °F 29.7 in SW 0.9 mph 2 mph 75% 0 in 23 W/m2
16:59 52 °F 45 °F 29.7 in Calm     77% 0 in 12 W/m2
17:04 51.4 °F 44.8 °F 29.7 in SW 0.9 mph 1 mph 78% 0 in 11 W/m2
17:09 51.3 °F 45.3 °F 29.7 in Calm     80% 0 in 9 W/m2
17:14 51.1 °F 45.5 °F 29.7 in Calm   1 mph 81% 0 in 5 W/m2
17:19 50.7 °F 45.5 °F 29.7 in Calm   3 mph 82% 0 in 0 W/m2
17:24 50.5 °F 45 °F 29.7 in Calm   2 mph 81% 0 in 0 W/m2
17:29 50.5 °F 45.5 °F 29.7 in East 0.9 mph 3 mph 83% 0 in 0 W/m2
17:34 50.4 °F 45.1 °F 29.7 in Calm   2 mph 82% 0 in 0 W/m2
17:40 50.2 °F 45.1 °F 29.7 in Calm     83% 0 in 0 W/m2
17:45 50 °F 45.3 °F 29.7 in SW 0.9 mph 2 mph 84% 0 in 0 W/m2
17:50 49.8 °F 44.8 °F 29.7 in Calm   1 mph 83% 0 in 0 W/m2
17:55 49.6 °F 45 °F 29.7 in SW 0.9 mph 1 mph 84% 0 in 0 W/m2
18:00 49.6 °F 44.8 °F 29.7 in NE 0.9 mph 2 mph 83% 0 in 0 W/m2
18:05 49.5 °F 44.8 °F 29.7 in NE 2 mph 2 mph 84% 0 in 0 W/m2
18:10 49.3 °F 44.6 °F 29.7 in Calm   1 mph 84% 0 in 0 W/m2
18:15 48.7 °F 44.4 °F 29.7 in Calm     85% 0 in 0 W/m2
18:20 48.4 °F 44.4 °F 29.7 in Calm   1 mph 86% 0 in 0 W/m2
18:25 48 °F 44.4 °F 29.7 in Calm     87% 0 in 0 W/m2
18:30 47.7 °F 44.1 °F 29.7 in Calm     87% 0 in 0 W/m2
18:35 47.3 °F 43.9 °F 29.7 in Calm     88% 0 in 0 W/m2
18:40 46.9 °F 43.5 °F 29.7 in Calm     88% 0 in 0 W/m2
18:45 46.8 °F 43.7 °F 29.7 in Calm     89% 0 in 0 W/m2
18:51 46.6 °F 43.5 °F 29.7 in Calm     89% 0 in 0 W/m2
18:56 46.4 °F 43.7 °F 29.7 in SSE 2 mph 6 mph 90% 0 in 0 W/m2
19:01 46.6 °F 43.9 °F 29.7 in Calm   2 mph 90% 0 in 0 W/m2
19:06 46.6 °F 44.1 °F 29.7 in Calm   6 mph 91% 0 in 0 W/m2
19:11 46.8 °F 44.2 °F 29.7 in WSW 2 mph 2 mph 91% 0 in 0 W/m2
19:16 46.9 °F 44.2 °F 29.7 in Calm     90% 0 in 0 W/m2
19:21 47.3 °F 44.6 °F 29.7 in NW 2 mph 3 mph 90% 0 in 0 W/m2
19:26 48.4 °F 45 °F 29.7 in ENE 2 mph 3 mph 88% 0 in 0 W/m2
19:31 49.1 °F 44.8 °F 29.7 in ENE 4.9 mph 8 mph 85% 0 in 0 W/m2
19:36 49.5 °F 44.8 °F 29.7 in West 0.9 mph 9 mph 84% 0 in 0 W/m2
19:41 49.5 °F 44.6 °F 29.7 in NW 0.9 mph 3 mph 83% 0 in 0 W/m2
19:46 49.5 °F 44.6 °F 29.7 in NNW 4 mph 9 mph 83% 0 in 0 W/m2
19:51 49.3 °F 44.6 °F 29.7 in North 2 mph 2 mph 84% 0 in 0 W/m2
19:56 49.1 °F 44.4 °F 29.7 in NNW 0.9 mph 3 mph 84% 0 in 0 W/m2
20:01 48.9 °F 44.6 °F 29.7 in Calm   3 mph 85% 0 in 0 W/m2
20:06 48.7 °F 44.4 °F 29.7 in Calm   3 mph 85% 0 in 0 W/m2
20:11 48.6 °F 44.6 °F 29.7 in WNW 2.9 mph 3 mph 86% 0 in 0 W/m2
20:16 48.4 °F 44.4 °F 29.7 in Calm   2 mph 86% 0 in 0 W/m2
20:21 48.4 °F 44.4 °F 29.7 in WNW 2.9 mph 4 mph 86% 0 in 0 W/m2
20:26 48.2 °F 44.2 °F 29.7 in Calm   2 mph 86% 0 in 0 W/m2
20:31 48 °F 44.1 °F 29.7 in SE 0.9 mph 3 mph 86% 0 in 0 W/m2
20:36 47.8 °F 43.9 °F 29.7 in Calm   2 mph 86% 0 in 0 W/m2
20:41 47.8 °F 43.9 °F 29.7 in Calm   3 mph 86% 0 in 0 W/m2
20:46 47.5 °F 43.9 °F 29.7 in Calm   1 mph 87% 0 in 0 W/m2
20:51 47.5 °F 43.9 °F 29.7 in Calm     87% 0 in 0 W/m2
20:56 47.1 °F 43.5 °F 29.7 in North 0.9 mph 1 mph 87% 0 in 0 W/m2
21:01 46.9 °F 43.5 °F 29.7 in Calm   1 mph 88% 0 in 0 W/m2
21:06 46.9 °F 43.5 °F 29.7 in NNE 0.9 mph 2 mph 88% 0 in 0 W/m2
21:11 46.8 °F 43.3 °F 29.7 in NE 0.9 mph 4 mph 88% 0 in 0 W/m2
21:16 46.8 °F 43.3 °F 29.7 in Calm   1 mph 88% 0 in 0 W/m2
21:21 46.6 °F 43.2 °F 29.7 in Calm   2 mph 88% 0 in 0 W/m2
21:26 46.6 °F 43.5 °F 29.7 in Calm   1 mph 89% 0 in 0 W/m2
21:31 46.2 °F 43.2 °F 29.7 in Calm   1 mph 89% 0 in 0 W/m2
21:37 46 °F 43 °F 29.7 in Calm   2 mph 89% 0 in 0 W/m2
21:42 45.9 °F 43.2 °F 29.7 in Calm   2 mph 90% 0 in 0 W/m2
21:47 45.9 °F 43.3 °F 29.7 in Calm   2 mph 91% 0 in 0 W/m2
21:52 45.9 °F 43.3 °F 29.7 in Calm   2 mph 91% 0 in 0 W/m2
21:57 45.9 °F 43.3 °F 29.7 in ENE 2 mph 5 mph 91% 0 in 0 W/m2
22:02 46 °F 43.5 °F 29.7 in Calm   2 mph 91% 0 in 0 W/m2
22:07 46 °F 43.3 °F 29.7 in ESE 2 mph 6 mph 90% 0 in 0 W/m2
22:12 46 °F 43.3 °F 29.7 in Calm   2 mph 90% 0 in 0 W/m2
22:17 46.2 °F 43.5 °F 29.7 in NNE 0.9 mph 1 mph 90% 0 in 0 W/m2
22:22 46.2 °F 43.5 °F 29.7 in North 2 mph 3 mph 90% 0 in 0 W/m2
22:27 46.6 °F 43.5 °F 29.7 in Calm   1 mph 89% 0 in 0 W/m2
22:32 46.6 °F 43.5 °F 29.7 in Calm   2 mph 89% 0 in 0 W/m2
22:37 46.6 °F 43.5 °F 29.7 in NNW 0.9 mph 2 mph 89% 0 in 0 W/m2
22:42 46.8 °F 43.7 °F 29.7 in NW 0.9 mph 1 mph 89% 0 in 0 W/m2
Juneau County Weather
Compliments of Weather Underground - 2 mb